sensor_id;sensor_type;location;lat;lon;timestamp;P1;durP1;ratioP1;P2;durP2;ratioP2
7460;SDS011;6757;52.258;12.840;2024-03-02T00:01:01;9.50;;;4.32;;
7460;SDS011;6757;52.258;12.840;2024-03-02T00:03:29;9.20;;;3.83;;
7460;SDS011;6757;52.258;12.840;2024-03-02T00:05:56;6.97;;;2.75;;
7460;SDS011;6757;52.258;12.840;2024-03-02T00:08:24;5.55;;;3.65;;
7460;SDS011;6757;52.258;12.840;2024-03-02T00:10:52;8.20;;;4.15;;
7460;SDS011;6757;52.258;12.840;2024-03-02T00:13:24;6.30;;;3.10;;
7460;SDS011;6757;52.258;12.840;2024-03-02T00:15:51;10.85;;;4.63;;
7460;SDS011;6757;52.258;12.840;2024-03-02T00:18:25;7.13;;;3.40;;
7460;SDS011;6757;52.258;12.840;2024-03-02T00:20:56;6.57;;;3.17;;
7460;SDS011;6757;52.258;12.840;2024-03-02T00:23:27;13.80;;;4.82;;
7460;SDS011;6757;52.258;12.840;2024-03-02T00:25:57;7.55;;;3.05;;
7460;SDS011;6757;52.258;12.840;2024-03-02T00:28:26;10.40;;;3.55;;
7460;SDS011;6757;52.258;12.840;2024-03-02T00:30:59;7.75;;;2.80;;
7460;SDS011;6757;52.258;12.840;2024-03-02T00:33:31;8.07;;;3.28;;
7460;SDS011;6757;52.258;12.840;2024-03-02T00:36:00;7.72;;;3.17;;
7460;SDS011;6757;52.258;12.840;2024-03-02T00:38:30;6.55;;;3.42;;
7460;SDS011;6757;52.258;12.840;2024-03-02T00:40:58;11.45;;;3.65;;
7460;SDS011;6757;52.258;12.840;2024-03-02T00:46:23;6.78;;;3.13;;
7460;SDS011;6757;52.258;12.840;2024-03-02T00:48:53;7.75;;;3.15;;
7460;SDS011;6757;52.258;12.840;2024-03-02T00:51:22;7.30;;;3.88;;
7460;SDS011;6757;52.258;12.840;2024-03-02T00:53:51;8.90;;;3.53;;
7460;SDS011;6757;52.258;12.840;2024-03-02T00:56:21;9.35;;;4.40;;
7460;SDS011;6757;52.258;12.840;2024-03-02T00:58:49;8.23;;;3.17;;
7460;SDS011;6757;52.258;12.840;2024-03-02T01:01:16;9.48;;;3.42;;
7460;SDS011;6757;52.258;12.840;2024-03-02T01:03:44;5.93;;;2.78;;
7460;SDS011;6757;52.258;12.840;2024-03-02T01:06:13;6.88;;;3.08;;
7460;SDS011;6757;52.258;12.840;2024-03-02T01:08:41;9.95;;;4.07;;
7460;SDS011;6757;52.258;12.840;2024-03-02T01:11:09;9.18;;;2.90;;
7460;SDS011;6757;52.258;12.840;2024-03-02T01:13:38;12.13;;;4.07;;
7460;SDS011;6757;52.258;12.840;2024-03-02T01:16:06;7.78;;;3.47;;
7460;SDS011;6757;52.258;12.840;2024-03-02T01:18:33;14.60;;;4.40;;
7460;SDS011;6757;52.258;12.840;2024-03-02T01:21:00;7.88;;;3.13;;
7460;SDS011;6757;52.258;12.840;2024-03-02T01:23:29;7.40;;;3.75;;
7460;SDS011;6757;52.258;12.840;2024-03-02T01:25:56;8.18;;;3.22;;
7460;SDS011;6757;52.258;12.840;2024-03-02T01:28:23;10.73;;;3.63;;
7460;SDS011;6757;52.258;12.840;2024-03-02T01:30:50;11.43;;;4.80;;
7460;SDS011;6757;52.258;12.840;2024-03-02T01:33:19;8.85;;;4.05;;
7460;SDS011;6757;52.258;12.840;2024-03-02T01:35:47;17.23;;;6.22;;
7460;SDS011;6757;52.258;12.840;2024-03-02T01:38:13;11.30;;;4.63;;
7460;SDS011;6757;52.258;12.840;2024-03-02T01:40:42;7.28;;;3.00;;
7460;SDS011;6757;52.258;12.840;2024-03-02T01:43:09;11.10;;;4.70;;
7460;SDS011;6757;52.258;12.840;2024-03-02T01:45:37;11.18;;;4.25;;
7460;SDS011;6757;52.258;12.840;2024-03-02T01:48:05;11.88;;;5.28;;
7460;SDS011;6757;52.258;12.840;2024-03-02T01:50:33;10.15;;;4.38;;
7460;SDS011;6757;52.258;12.840;2024-03-02T01:53:02;13.82;;;5.00;;
7460;SDS011;6757;52.258;12.840;2024-03-02T01:55:29;10.73;;;3.83;;
7460;SDS011;6757;52.258;12.840;2024-03-02T01:58:00;15.23;;;4.82;;
7460;SDS011;6757;52.258;12.840;2024-03-02T02:00:28;9.95;;;4.10;;
7460;SDS011;6757;52.258;12.840;2024-03-02T02:02:55;10.10;;;3.67;;
7460;SDS011;6757;52.258;12.840;2024-03-02T02:05:22;11.30;;;4.35;;
7460;SDS011;6757;52.258;12.840;2024-03-02T02:07:50;8.30;;;3.65;;
7460;SDS011;6757;52.258;12.840;2024-03-02T02:10:17;8.82;;;3.53;;
7460;SDS011;6757;52.258;12.840;2024-03-02T02:12:44;14.05;;;5.75;;
7460;SDS011;6757;52.258;12.840;2024-03-02T02:15:28;8.65;;;4.07;;
7460;SDS011;6757;52.258;12.840;2024-03-02T02:17:57;8.90;;;3.10;;
7460;SDS011;6757;52.258;12.840;2024-03-02T02:20:25;13.43;;;4.15;;
7460;SDS011;6757;52.258;12.840;2024-03-02T02:25:38;6.53;;;3.28;;
7460;SDS011;6757;52.258;12.840;2024-03-02T02:28:05;12.80;;;4.75;;
7460;SDS011;6757;52.258;12.840;2024-03-02T02:30:33;10.40;;;5.25;;
7460;SDS011;6757;52.258;12.840;2024-03-02T02:33:00;6.78;;;3.53;;
7460;SDS011;6757;52.258;12.840;2024-03-02T02:35:29;9.57;;;3.85;;
7460;SDS011;6757;52.258;12.840;2024-03-02T02:37:56;10.50;;;4.93;;
7460;SDS011;6757;52.258;12.840;2024-03-02T02:40:25;8.88;;;3.45;;
7460;SDS011;6757;52.258;12.840;2024-03-02T02:42:54;8.38;;;3.80;;
7460;SDS011;6757;52.258;12.840;2024-03-02T02:45:21;13.43;;;5.25;;
7460;SDS011;6757;52.258;12.840;2024-03-02T02:47:47;13.30;;;5.43;;
7460;SDS011;6757;52.258;12.840;2024-03-02T02:50:17;7.78;;;3.22;;
7460;SDS011;6757;52.258;12.840;2024-03-02T02:52:45;6.45;;;2.70;;
7460;SDS011;6757;52.258;12.840;2024-03-02T02:55:13;11.27;;;3.58;;
7460;SDS011;6757;52.258;12.840;2024-03-02T02:57:43;17.70;;;4.28;;
7460;SDS011;6757;52.258;12.840;2024-03-02T03:00:12;9.05;;;3.88;;
7460;SDS011;6757;52.258;12.840;2024-03-02T03:02:42;12.32;;;4.32;;
7460;SDS011;6757;52.258;12.840;2024-03-02T03:05:12;12.07;;;4.25;;
7460;SDS011;6757;52.258;12.840;2024-03-02T03:07:41;10.50;;;4.50;;
7460;SDS011;6757;52.258;12.840;2024-03-02T03:10:09;11.52;;;4.20;;
7460;SDS011;6757;52.258;12.840;2024-03-02T03:12:37;11.85;;;4.13;;
7460;SDS011;6757;52.258;12.840;2024-03-02T03:15:09;9.20;;;4.03;;
7460;SDS011;6757;52.258;12.840;2024-03-02T03:17:37;10.43;;;3.88;;
7460;SDS011;6757;52.258;12.840;2024-03-02T03:20:05;11.00;;;4.38;;
7460;SDS011;6757;52.258;12.840;2024-03-02T03:22:35;9.05;;;4.30;;
7460;SDS011;6757;52.258;12.840;2024-03-02T03:25:03;11.23;;;4.00;;
7460;SDS011;6757;52.258;12.840;2024-03-02T03:27:33;9.57;;;4.72;;
7460;SDS011;6757;52.258;12.840;2024-03-02T03:29:59;12.27;;;4.93;;
7460;SDS011;6757;52.258;12.840;2024-03-02T03:32:28;13.25;;;4.97;;
7460;SDS011;6757;52.258;12.840;2024-03-02T03:34:56;12.70;;;4.85;;
7460;SDS011;6757;52.258;12.840;2024-03-02T03:37:23;11.25;;;4.45;;
7460;SDS011;6757;52.258;12.840;2024-03-02T03:39:57;10.60;;;4.53;;
7460;SDS011;6757;52.258;12.840;2024-03-02T03:42:24;13.70;;;6.28;;
7460;SDS011;6757;52.258;12.840;2024-03-02T03:44:51;12.40;;;5.35;;
7460;SDS011;6757;52.258;12.840;2024-03-02T03:47:18;9.30;;;4.03;;
7460;SDS011;6757;52.258;12.840;2024-03-02T03:49:48;13.68;;;5.00;;
7460;SDS011;6757;52.258;12.840;2024-03-02T03:52:15;6.47;;;3.70;;
7460;SDS011;6757;52.258;12.840;2024-03-02T03:54:42;14.23;;;5.07;;
7460;SDS011;6757;52.258;12.840;2024-03-02T03:57:09;14.43;;;6.13;;
7460;SDS011;6757;52.258;12.840;2024-03-02T03:59:37;14.63;;;6.15;;
7460;SDS011;6757;52.258;12.840;2024-03-02T04:02:04;14.43;;;4.97;;
7460;SDS011;6757;52.258;12.840;2024-03-02T04:04:33;15.68;;;5.70;;
7460;SDS011;6757;52.258;12.840;2024-03-02T04:07:01;12.68;;;4.97;;
7460;SDS011;6757;52.258;12.840;2024-03-02T04:09:29;18.48;;;6.82;;
7460;SDS011;6757;52.258;12.840;2024-03-02T04:11:56;15.43;;;7.20;;
7460;SDS011;6757;52.258;12.840;2024-03-02T04:14:24;16.80;;;6.95;;
7460;SDS011;6757;52.258;12.840;2024-03-02T04:16:51;17.80;;;7.03;;
7460;SDS011;6757;52.258;12.840;2024-03-02T04:19:18;16.00;;;8.30;;
7460;SDS011;6757;52.258;12.840;2024-03-02T04:21:46;16.80;;;6.50;;
7460;SDS011;6757;52.258;12.840;2024-03-02T04:24:15;14.20;;;6.97;;
7460;SDS011;6757;52.258;12.840;2024-03-02T04:26:42;20.90;;;7.63;;
7460;SDS011;6757;52.258;12.840;2024-03-02T04:29:09;11.85;;;5.97;;
7460;SDS011;6757;52.258;12.840;2024-03-02T04:31:37;17.85;;;8.20;;
7460;SDS011;6757;52.258;12.840;2024-03-02T04:34:04;18.05;;;8.68;;
7460;SDS011;6757;52.258;12.840;2024-03-02T04:36:31;14.25;;;6.40;;
7460;SDS011;6757;52.258;12.840;2024-03-02T04:38:58;16.23;;;7.10;;
7460;SDS011;6757;52.258;12.840;2024-03-02T04:41:27;14.45;;;5.43;;
7460;SDS011;6757;52.258;12.840;2024-03-02T04:43:54;15.43;;;7.53;;
7460;SDS011;6757;52.258;12.840;2024-03-02T04:46:21;18.83;;;7.28;;
7460;SDS011;6757;52.258;12.840;2024-03-02T04:48:49;13.55;;;5.72;;
7460;SDS011;6757;52.258;12.840;2024-03-02T04:51:20;14.23;;;5.95;;
7460;SDS011;6757;52.258;12.840;2024-03-02T04:53:48;18.20;;;5.80;;
7460;SDS011;6757;52.258;12.840;2024-03-02T04:56:15;16.38;;;7.05;;
7460;SDS011;6757;52.258;12.840;2024-03-02T04:59:10;17.58;;;6.38;;
7460;SDS011;6757;52.258;12.840;2024-03-02T05:01:37;18.23;;;7.15;;
7460;SDS011;6757;52.258;12.840;2024-03-02T05:04:04;16.20;;;6.85;;
7460;SDS011;6757;52.258;12.840;2024-03-02T05:06:31;17.05;;;6.38;;
7460;SDS011;6757;52.258;12.840;2024-03-02T05:08:59;13.13;;;5.38;;
7460;SDS011;6757;52.258;12.840;2024-03-02T05:11:27;16.52;;;7.32;;
7460;SDS011;6757;52.258;12.840;2024-03-02T05:14:12;13.85;;;5.95;;
7460;SDS011;6757;52.258;12.840;2024-03-02T05:16:39;14.27;;;6.28;;
7460;SDS011;6757;52.258;12.840;2024-03-02T05:19:06;15.38;;;6.25;;
7460;SDS011;6757;52.258;12.840;2024-03-02T05:21:34;12.70;;;6.05;;
7460;SDS011;6757;52.258;12.840;2024-03-02T05:24:01;16.70;;;4.95;;
7460;SDS011;6757;52.258;12.840;2024-03-02T05:26:28;14.50;;;5.28;;
7460;SDS011;6757;52.258;12.840;2024-03-02T05:28:55;13.00;;;5.35;;
7460;SDS011;6757;52.258;12.840;2024-03-02T05:31:24;16.58;;;7.30;;
7460;SDS011;6757;52.258;12.840;2024-03-02T05:33:51;12.82;;;5.15;;
7460;SDS011;6757;52.258;12.840;2024-03-02T05:36:18;14.20;;;5.70;;
7460;SDS011;6757;52.258;12.840;2024-03-02T05:38:49;12.82;;;4.95;;
7460;SDS011;6757;52.258;12.840;2024-03-02T05:41:16;16.10;;;5.63;;
7460;SDS011;6757;52.258;12.840;2024-03-02T05:43:43;14.75;;;6.10;;
7460;SDS011;6757;52.258;12.840;2024-03-02T05:46:10;14.32;;;5.60;;
7460;SDS011;6757;52.258;12.840;2024-03-02T05:48:40;15.65;;;6.90;;
7460;SDS011;6757;52.258;12.840;2024-03-02T05:51:07;16.45;;;7.60;;
7460;SDS011;6757;52.258;12.840;2024-03-02T05:53:34;19.15;;;6.05;;
7460;SDS011;6757;52.258;12.840;2024-03-02T05:56:03;15.35;;;6.82;;
7460;SDS011;6757;52.258;12.840;2024-03-02T05:58:32;15.57;;;6.20;;
7460;SDS011;6757;52.258;12.840;2024-03-02T06:01:11;15.93;;;6.57;;
7460;SDS011;6757;52.258;12.840;2024-03-02T06:03:40;15.93;;;7.80;;
7460;SDS011;6757;52.258;12.840;2024-03-02T06:06:07;14.02;;;5.35;;
7460;SDS011;6757;52.258;12.840;2024-03-02T06:08:35;21.80;;;7.00;;
7460;SDS011;6757;52.258;12.840;2024-03-02T06:11:02;14.40;;;6.45;;
7460;SDS011;6757;52.258;12.840;2024-03-02T06:13:29;13.10;;;5.32;;
7460;SDS011;6757;52.258;12.840;2024-03-02T06:15:56;13.10;;;6.00;;
7460;SDS011;6757;52.258;12.840;2024-03-02T06:18:23;15.93;;;5.95;;
7460;SDS011;6757;52.258;12.840;2024-03-02T06:20:54;15.68;;;6.90;;
7460;SDS011;6757;52.258;12.840;2024-03-02T06:23:21;20.58;;;6.30;;
7460;SDS011;6757;52.258;12.840;2024-03-02T06:25:48;16.77;;;6.97;;
7460;SDS011;6757;52.258;12.840;2024-03-02T06:28:16;18.85;;;6.22;;
7460;SDS011;6757;52.258;12.840;2024-03-02T06:30:42;14.82;;;4.90;;
7460;SDS011;6757;52.258;12.840;2024-03-02T06:33:10;14.52;;;5.55;;
7460;SDS011;6757;52.258;12.840;2024-03-02T06:35:37;12.93;;;6.65;;
7460;SDS011;6757;52.258;12.840;2024-03-02T06:38:07;15.27;;;5.45;;
7460;SDS011;6757;52.258;12.840;2024-03-02T06:40:34;10.00;;;4.15;;
7460;SDS011;6757;52.258;12.840;2024-03-02T06:43:03;13.20;;;5.93;;
7460;SDS011;6757;52.258;12.840;2024-03-02T06:45:30;14.30;;;5.18;;
7460;SDS011;6757;52.258;12.840;2024-03-02T06:47:59;14.02;;;6.15;;
7460;SDS011;6757;52.258;12.840;2024-03-02T06:50:27;15.50;;;6.57;;
7460;SDS011;6757;52.258;12.840;2024-03-02T06:52:54;18.48;;;7.43;;
7460;SDS011;6757;52.258;12.840;2024-03-02T06:55:23;13.90;;;5.65;;
7460;SDS011;6757;52.258;12.840;2024-03-02T06:57:50;14.93;;;6.90;;
7460;SDS011;6757;52.258;12.840;2024-03-02T07:00:18;17.20;;;6.40;;
7460;SDS011;6757;52.258;12.840;2024-03-02T07:02:47;19.83;;;7.10;;
7460;SDS011;6757;52.258;12.840;2024-03-02T07:05:16;16.77;;;7.13;;
7460;SDS011;6757;52.258;12.840;2024-03-02T07:07:43;17.33;;;6.80;;
7460;SDS011;6757;52.258;12.840;2024-03-02T07:10:10;20.92;;;7.53;;
7460;SDS011;6757;52.258;12.840;2024-03-02T07:12:40;18.98;;;7.80;;
7460;SDS011;6757;52.258;12.840;2024-03-02T07:15:07;17.45;;;7.00;;
7460;SDS011;6757;52.258;12.840;2024-03-02T07:17:54;18.67;;;7.57;;
7460;SDS011;6757;52.258;12.840;2024-03-02T07:20:20;20.52;;;8.00;;
7460;SDS011;6757;52.258;12.840;2024-03-02T07:22:49;16.98;;;7.80;;
7460;SDS011;6757;52.258;12.840;2024-03-02T07:25:16;15.00;;;6.88;;
7460;SDS011;6757;52.258;12.840;2024-03-02T07:27:47;12.98;;;5.75;;
7460;SDS011;6757;52.258;12.840;2024-03-02T07:30:14;14.50;;;5.50;;
7460;SDS011;6757;52.258;12.840;2024-03-02T07:32:42;16.77;;;6.70;;
7460;SDS011;6757;52.258;12.840;2024-03-02T07:35:10;19.40;;;7.80;;
7460;SDS011;6757;52.258;12.840;2024-03-02T07:37:38;17.00;;;7.15;;
7460;SDS011;6757;52.258;12.840;2024-03-02T07:40:06;19.27;;;5.72;;
7460;SDS011;6757;52.258;12.840;2024-03-02T07:42:36;15.77;;;7.18;;
7460;SDS011;6757;52.258;12.840;2024-03-02T07:45:07;19.83;;;7.00;;
7460;SDS011;6757;52.258;12.840;2024-03-02T07:47:34;18.42;;;7.68;;
7460;SDS011;6757;52.258;12.840;2024-03-02T07:50:03;18.50;;;7.25;;
7460;SDS011;6757;52.258;12.840;2024-03-02T07:52:32;20.90;;;7.15;;
7460;SDS011;6757;52.258;12.840;2024-03-02T07:55:00;16.20;;;7.43;;
7460;SDS011;6757;52.258;12.840;2024-03-02T07:57:27;21.10;;;7.20;;
7460;SDS011;6757;52.258;12.840;2024-03-02T07:59:54;20.20;;;7.10;;
7460;SDS011;6757;52.258;12.840;2024-03-02T08:02:23;19.00;;;8.88;;
7460;SDS011;6757;52.258;12.840;2024-03-02T08:04:50;25.13;;;8.85;;
7460;SDS011;6757;52.258;12.840;2024-03-02T08:07:19;19.83;;;8.25;;
7460;SDS011;6757;52.258;12.840;2024-03-02T08:09:46;22.48;;;8.63;;
7460;SDS011;6757;52.258;12.840;2024-03-02T08:12:13;14.80;;;6.95;;
7460;SDS011;6757;52.258;12.840;2024-03-02T08:14:40;18.95;;;8.13;;
7460;SDS011;6757;52.258;12.840;2024-03-02T08:17:07;20.00;;;8.07;;
7460;SDS011;6757;52.258;12.840;2024-03-02T08:19:37;16.58;;;6.82;;
7460;SDS011;6757;52.258;12.840;2024-03-02T08:22:04;18.15;;;6.07;;
7460;SDS011;6757;52.258;12.840;2024-03-02T08:24:32;19.73;;;6.47;;
7460;SDS011;6757;52.258;12.840;2024-03-02T08:26:59;19.73;;;7.97;;
7460;SDS011;6757;52.258;12.840;2024-03-02T08:29:26;14.88;;;6.50;;
7460;SDS011;6757;52.258;12.840;2024-03-02T08:31:54;16.52;;;7.25;;
7460;SDS011;6757;52.258;12.840;2024-03-02T08:34:21;14.40;;;5.90;;
7460;SDS011;6757;52.258;12.840;2024-03-02T08:36:51;15.20;;;7.07;;
7460;SDS011;6757;52.258;12.840;2024-03-02T08:39:18;17.67;;;6.30;;
7460;SDS011;6757;52.258;12.840;2024-03-02T08:41:46;16.25;;;6.25;;
7460;SDS011;6757;52.258;12.840;2024-03-02T08:44:14;17.05;;;6.43;;
7460;SDS011;6757;52.258;12.840;2024-03-02T08:46:42;18.88;;;7.90;;
7460;SDS011;6757;52.258;12.840;2024-03-02T08:49:10;18.38;;;6.32;;
7460;SDS011;6757;52.258;12.840;2024-03-02T08:51:37;19.35;;;7.07;;
7460;SDS011;6757;52.258;12.840;2024-03-02T08:54:06;17.10;;;7.05;;
7460;SDS011;6757;52.258;12.840;2024-03-02T08:56:33;22.00;;;7.00;;
7460;SDS011;6757;52.258;12.840;2024-03-02T08:59:00;16.23;;;5.80;;
7460;SDS011;6757;52.258;12.840;2024-03-02T09:01:27;11.43;;;5.00;;
7460;SDS011;6757;52.258;12.840;2024-03-02T09:03:54;19.15;;;6.72;;
7460;SDS011;6757;52.258;12.840;2024-03-02T09:06:21;19.73;;;7.22;;
7460;SDS011;6757;52.258;12.840;2024-03-02T09:08:48;16.02;;;6.43;;
7460;SDS011;6757;52.258;12.840;2024-03-02T09:11:18;18.88;;;7.03;;
7460;SDS011;6757;52.258;12.840;2024-03-02T09:13:45;15.25;;;5.57;;
7460;SDS011;6757;52.258;12.840;2024-03-02T09:16:12;15.77;;;6.30;;
7460;SDS011;6757;52.258;12.840;2024-03-02T09:18:39;16.80;;;6.47;;
7460;SDS011;6757;52.258;12.840;2024-03-02T09:21:06;20.15;;;7.07;;
7460;SDS011;6757;52.258;12.840;2024-03-02T09:23:34;24.40;;;8.07;;
7460;SDS011;6757;52.258;12.840;2024-03-02T09:26:05;16.83;;;6.90;;
7460;SDS011;6757;52.258;12.840;2024-03-02T09:28:33;19.42;;;6.85;;
7460;SDS011;6757;52.258;12.840;2024-03-02T09:31:00;18.23;;;7.10;;
7460;SDS011;6757;52.258;12.840;2024-03-02T09:33:28;18.67;;;7.57;;
7460;SDS011;6757;52.258;12.840;2024-03-02T09:35:55;20.42;;;7.13;;
7460;SDS011;6757;52.258;12.840;2024-03-02T09:38:23;17.15;;;5.80;;
7460;SDS011;6757;52.258;12.840;2024-03-02T09:40:50;15.63;;;5.45;;
7460;SDS011;6757;52.258;12.840;2024-03-02T09:43:17;14.23;;;6.10;;
7460;SDS011;6757;52.258;12.840;2024-03-02T09:45:46;16.55;;;6.72;;
7460;SDS011;6757;52.258;12.840;2024-03-02T09:48:14;9.65;;;4.38;;
7460;SDS011;6757;52.258;12.840;2024-03-02T09:50:45;12.15;;;5.15;;
7460;SDS011;6757;52.258;12.840;2024-03-02T09:53:13;15.05;;;6.25;;
7460;SDS011;6757;52.258;12.840;2024-03-02T09:55:45;14.85;;;6.30;;
7460;SDS011;6757;52.258;12.840;2024-03-02T09:58:13;17.30;;;6.32;;
7460;SDS011;6757;52.258;12.840;2024-03-02T10:00:40;14.73;;;6.72;;
7460;SDS011;6757;52.258;12.840;2024-03-02T10:03:13;21.25;;;8.23;;
7460;SDS011;6757;52.258;12.840;2024-03-02T10:05:42;16.23;;;6.82;;
7460;SDS011;6757;52.258;12.840;2024-03-02T10:08:09;14.70;;;6.20;;
7460;SDS011;6757;52.258;12.840;2024-03-02T10:10:37;16.48;;;7.40;;
7460;SDS011;6757;52.258;12.840;2024-03-02T10:13:07;15.82;;;6.70;;
7460;SDS011;6757;52.258;12.840;2024-03-02T10:15:35;18.67;;;7.43;;
7460;SDS011;6757;52.258;12.840;2024-03-02T10:18:06;17.90;;;8.57;;
7460;SDS011;6757;52.258;12.840;2024-03-02T10:20:38;20.73;;;8.32;;
7460;SDS011;6757;52.258;12.840;2024-03-02T10:23:12;21.33;;;9.18;;
7460;SDS011;6757;52.258;12.840;2024-03-02T10:25:40;21.42;;;7.43;;
7460;SDS011;6757;52.258;12.840;2024-03-02T10:28:09;21.55;;;8.07;;
7460;SDS011;6757;52.258;12.840;2024-03-02T10:30:36;25.15;;;7.90;;
7460;SDS011;6757;52.258;12.840;2024-03-02T10:33:03;20.00;;;8.40;;
7460;SDS011;6757;52.258;12.840;2024-03-02T10:35:32;20.27;;;7.70;;
7460;SDS011;6757;52.258;12.840;2024-03-02T10:38:03;25.95;;;9.88;;
7460;SDS011;6757;52.258;12.840;2024-03-02T10:40:30;24.55;;;10.07;;
7460;SDS011;6757;52.258;12.840;2024-03-02T10:42:57;20.98;;;9.70;;
7460;SDS011;6757;52.258;12.840;2024-03-02T10:45:28;22.73;;;8.18;;
7460;SDS011;6757;52.258;12.840;2024-03-02T10:47:57;19.83;;;8.02;;
7460;SDS011;6757;52.258;12.840;2024-03-02T10:50:25;12.80;;;6.60;;
7460;SDS011;6757;52.258;12.840;2024-03-02T10:52:52;20.67;;;7.57;;
7460;SDS011;6757;52.258;12.840;2024-03-02T10:55:21;18.77;;;7.43;;
7460;SDS011;6757;52.258;12.840;2024-03-02T10:57:50;19.65;;;7.25;;
7460;SDS011;6757;52.258;12.840;2024-03-02T11:00:21;22.30;;;8.45;;
7460;SDS011;6757;52.258;12.840;2024-03-02T11:02:55;21.85;;;6.47;;
7460;SDS011;6757;52.258;12.840;2024-03-02T11:05:26;22.02;;;8.10;;
7460;SDS011;6757;52.258;12.840;2024-03-02T11:08:00;20.05;;;7.78;;
7460;SDS011;6757;52.258;12.840;2024-03-02T11:13:02;21.08;;;8.90;;
7460;SDS011;6757;52.258;12.840;2024-03-02T11:15:31;19.65;;;8.02;;
7460;SDS011;6757;52.258;12.840;2024-03-02T11:18:03;18.33;;;6.65;;
7460;SDS011;6757;52.258;12.840;2024-03-02T11:20:33;21.58;;;7.13;;
7460;SDS011;6757;52.258;12.840;2024-03-02T11:23:04;14.15;;;6.05;;
7460;SDS011;6757;52.258;12.840;2024-03-02T11:25:34;16.45;;;6.20;;
7460;SDS011;6757;52.258;12.840;2024-03-02T11:28:03;14.48;;;5.63;;
7460;SDS011;6757;52.258;12.840;2024-03-02T11:30:52;13.18;;;5.95;;
7460;SDS011;6757;52.258;12.840;2024-03-02T11:33:24;18.00;;;6.50;;
7460;SDS011;6757;52.258;12.840;2024-03-02T11:35:55;15.32;;;5.72;;
7460;SDS011;6757;52.258;12.840;2024-03-02T11:38:27;15.02;;;6.10;;
7460;SDS011;6757;52.258;12.840;2024-03-02T11:40:59;16.17;;;5.85;;
7460;SDS011;6757;52.258;12.840;2024-03-02T11:43:28;16.35;;;5.13;;
7460;SDS011;6757;52.258;12.840;2024-03-02T11:45:58;14.20;;;5.25;;
7460;SDS011;6757;52.258;12.840;2024-03-02T11:48:29;14.18;;;5.97;;
7460;SDS011;6757;52.258;12.840;2024-03-02T11:50:57;15.80;;;5.82;;
7460;SDS011;6757;52.258;12.840;2024-03-02T11:53:26;14.25;;;5.82;;
7460;SDS011;6757;52.258;12.840;2024-03-02T11:55:55;13.98;;;5.50;;
7460;SDS011;6757;52.258;12.840;2024-03-02T11:58:23;16.50;;;6.10;;
7460;SDS011;6757;52.258;12.840;2024-03-02T12:00:51;13.90;;;4.57;;
7460;SDS011;6757;52.258;12.840;2024-03-02T12:03:21;13.55;;;6.22;;
7460;SDS011;6757;52.258;12.840;2024-03-02T12:05:50;17.92;;;6.30;;
7460;SDS011;6757;52.258;12.840;2024-03-02T12:08:18;17.45;;;6.72;;
7460;SDS011;6757;52.258;12.840;2024-03-02T12:10:55;16.83;;;5.72;;
7460;SDS011;6757;52.258;12.840;2024-03-02T12:13:24;16.23;;;6.07;;
7460;SDS011;6757;52.258;12.840;2024-03-02T12:15:54;15.73;;;6.00;;
7460;SDS011;6757;52.258;12.840;2024-03-02T12:18:21;17.17;;;5.97;;
7460;SDS011;6757;52.258;12.840;2024-03-02T12:20:50;11.93;;;4.82;;
7460;SDS011;6757;52.258;12.840;2024-03-02T12:23:22;14.10;;;5.53;;
7460;SDS011;6757;52.258;12.840;2024-03-02T12:25:49;15.45;;;5.72;;
7460;SDS011;6757;52.258;12.840;2024-03-02T12:28:18;18.45;;;5.50;;
7460;SDS011;6757;52.258;12.840;2024-03-02T12:30:47;12.65;;;5.03;;
7460;SDS011;6757;52.258;12.840;2024-03-02T12:33:16;12.52;;;4.10;;
7460;SDS011;6757;52.258;12.840;2024-03-02T12:35:43;14.93;;;5.47;;
7460;SDS011;6757;52.258;12.840;2024-03-02T12:38:10;15.48;;;5.65;;
7460;SDS011;6757;52.258;12.840;2024-03-02T12:40:38;14.93;;;4.97;;
7460;SDS011;6757;52.258;12.840;2024-03-02T12:43:06;12.63;;;4.70;;
7460;SDS011;6757;52.258;12.840;2024-03-02T12:45:33;10.45;;;3.95;;
7460;SDS011;6757;52.258;12.840;2024-03-02T12:48:03;11.10;;;4.32;;
7460;SDS011;6757;52.258;12.840;2024-03-02T12:50:31;13.18;;;5.13;;
7460;SDS011;6757;52.258;12.840;2024-03-02T12:52:59;13.52;;;4.97;;
7460;SDS011;6757;52.258;12.840;2024-03-02T12:55:26;12.65;;;4.15;;
7460;SDS011;6757;52.258;12.840;2024-03-02T12:57:54;14.57;;;4.43;;
7460;SDS011;6757;52.258;12.840;2024-03-02T13:00:22;13.68;;;4.63;;
7460;SDS011;6757;52.258;12.840;2024-03-02T13:02:50;10.95;;;4.13;;
7460;SDS011;6757;52.258;12.840;2024-03-02T13:05:20;13.48;;;4.68;;
7460;SDS011;6757;52.258;12.840;2024-03-02T13:07:48;8.27;;;3.40;;
7460;SDS011;6757;52.258;12.840;2024-03-02T13:10:15;13.23;;;4.10;;
7460;SDS011;6757;52.258;12.840;2024-03-02T13:12:43;12.48;;;4.32;;
7460;SDS011;6757;52.258;12.840;2024-03-02T13:15:10;11.98;;;4.03;;
7460;SDS011;6757;52.258;12.840;2024-03-02T13:17:38;12.30;;;4.22;;
7460;SDS011;6757;52.258;12.840;2024-03-02T13:20:07;11.93;;;3.90;;
7460;SDS011;6757;52.258;12.840;2024-03-02T13:22:38;15.40;;;4.60;;
7460;SDS011;6757;52.258;12.840;2024-03-02T13:25:04;12.68;;;4.40;;
7460;SDS011;6757;52.258;12.840;2024-03-02T13:27:36;12.23;;;4.28;;
7460;SDS011;6757;52.258;12.840;2024-03-02T13:30:05;12.13;;;4.50;;
7460;SDS011;6757;52.258;12.840;2024-03-02T13:32:34;16.67;;;4.90;;
7460;SDS011;6757;52.258;12.840;2024-03-02T13:35:01;14.90;;;4.82;;
7460;SDS011;6757;52.258;12.840;2024-03-02T13:37:29;13.68;;;4.60;;
7460;SDS011;6757;52.258;12.840;2024-03-02T13:39:58;12.30;;;4.35;;
7460;SDS011;6757;52.258;12.840;2024-03-02T13:42:25;11.75;;;4.30;;
7460;SDS011;6757;52.258;12.840;2024-03-02T13:44:54;11.02;;;3.92;;
7460;SDS011;6757;52.258;12.840;2024-03-02T13:47:22;16.08;;;4.72;;
7460;SDS011;6757;52.258;12.840;2024-03-02T13:49:51;12.45;;;4.63;;
7460;SDS011;6757;52.258;12.840;2024-03-02T13:52:17;11.35;;;4.30;;
7460;SDS011;6757;52.258;12.840;2024-03-02T13:54:46;11.35;;;4.35;;
7460;SDS011;6757;52.258;12.840;2024-03-02T13:57:18;14.80;;;4.40;;
7460;SDS011;6757;52.258;12.840;2024-03-02T13:59:45;13.05;;;4.13;;
7460;SDS011;6757;52.258;12.840;2024-03-02T14:02:13;12.35;;;4.75;;
7460;SDS011;6757;52.258;12.840;2024-03-02T14:04:40;12.90;;;4.93;;
7460;SDS011;6757;52.258;12.840;2024-03-02T14:07:06;11.60;;;4.40;;
7460;SDS011;6757;52.258;12.840;2024-03-02T14:09:35;13.13;;;4.55;;
7460;SDS011;6757;52.258;12.840;2024-03-02T14:12:03;14.25;;;4.63;;
7460;SDS011;6757;52.258;12.840;2024-03-02T14:14:32;12.52;;;4.25;;
7460;SDS011;6757;52.258;12.840;2024-03-02T14:16:59;11.68;;;3.75;;
7460;SDS011;6757;52.258;12.840;2024-03-02T14:19:29;12.52;;;4.38;;
7460;SDS011;6757;52.258;12.840;2024-03-02T14:21:57;13.30;;;4.13;;
7460;SDS011;6757;52.258;12.840;2024-03-02T14:24:25;12.07;;;4.43;;
7460;SDS011;6757;52.258;12.840;2024-03-02T14:26:54;11.38;;;4.20;;
7460;SDS011;6757;52.258;12.840;2024-03-02T14:29:22;10.70;;;3.97;;
7460;SDS011;6757;52.258;12.840;2024-03-02T14:31:50;9.35;;;3.35;;
7460;SDS011;6757;52.258;12.840;2024-03-02T14:34:18;13.75;;;4.47;;
7460;SDS011;6757;52.258;12.840;2024-03-02T14:36:47;9.95;;;3.70;;
7460;SDS011;6757;52.258;12.840;2024-03-02T14:39:14;11.55;;;3.65;;
7460;SDS011;6757;52.258;12.840;2024-03-02T14:41:41;14.23;;;4.40;;
7460;SDS011;6757;52.258;12.840;2024-03-02T14:44:08;13.20;;;4.22;;
7460;SDS011;6757;52.258;12.840;2024-03-02T14:46:38;11.32;;;3.90;;
7460;SDS011;6757;52.258;12.840;2024-03-02T14:49:08;11.25;;;4.03;;
7460;SDS011;6757;52.258;12.840;2024-03-02T14:51:35;10.70;;;3.67;;
7460;SDS011;6757;52.258;12.840;2024-03-02T14:54:04;9.13;;;3.60;;
7460;SDS011;6757;52.258;12.840;2024-03-02T14:56:32;10.10;;;3.17;;
7460;SDS011;6757;52.258;12.840;2024-03-02T14:58:59;10.02;;;3.72;;
7460;SDS011;6757;52.258;12.840;2024-03-02T15:01:26;10.93;;;3.83;;
7460;SDS011;6757;52.258;12.840;2024-03-02T15:03:54;7.47;;;3.10;;
7460;SDS011;6757;52.258;12.840;2024-03-02T15:06:23;10.23;;;3.15;;